sensor_id;sensor_type;location;lat;lon;timestamp;pressure;altitude;pressure_sealevel;temperature;humidity
42511;BME280;28141;51.120;17.114;2023-02-20T00:01:37;102292.06;;;23.55;29.67
42511;BME280;28141;51.120;17.114;2023-02-20T00:04:41;102290.16;;;23.55;29.55
42511;BME280;28141;51.120;17.114;2023-02-20T00:07:45;102291.46;;;23.59;29.06
42511;BME280;28141;51.120;17.114;2023-02-20T00:10:49;102287.66;;;23.60;29.47
42511;BME280;28141;51.120;17.114;2023-02-20T00:13:52;102287.45;;;23.62;29.28
42511;BME280;28141;51.120;17.114;2023-02-20T00:16:55;102277.91;;;23.64;29.31
42511;BME280;28141;51.120;17.114;2023-02-20T00:19:59;102270.38;;;23.58;29.68
42511;BME280;28141;51.120;17.114;2023-02-20T00:23:32;102272.95;;;23.60;29.44
42511;BME280;28141;51.120;17.114;2023-02-20T00:26:36;102264.75;;;23.67;29.30
42511;BME280;28141;51.120;17.114;2023-02-20T00:29:39;102249.77;;;23.61;29.35
42511;BME280;28141;51.120;17.114;2023-02-20T00:32:42;102241.76;;;23.66;29.51
42511;BME280;28141;51.120;17.114;2023-02-20T00:35:46;102244.52;;;23.66;29.22
42511;BME280;28141;51.120;17.114;2023-02-20T00:38:49;102236.23;;;23.66;29.16
42511;BME280;28141;51.120;17.114;2023-02-20T00:41:53;102242.87;;;23.72;28.95
42511;BME280;28141;51.120;17.114;2023-02-20T00:44:59;102228.18;;;23.71;28.90
42511;BME280;28141;51.120;17.114;2023-02-20T00:48:29;102221.06;;;23.62;29.21
42511;BME280;28141;51.120;17.114;2023-02-20T00:51:32;102232.85;;;23.71;29.32
42511;BME280;28141;51.120;17.114;2023-02-20T00:54:38;102244.52;;;23.66;29.33
42511;BME280;28141;51.120;17.114;2023-02-20T00:57:42;102244.39;;;23.74;29.40
42511;BME280;28141;51.120;17.114;2023-02-20T01:00:45;102240.82;;;23.80;29.35
42511;BME280;28141;51.120;17.114;2023-02-20T01:03:49;102233.19;;;23.82;29.11
42511;BME280;28141;51.120;17.114;2023-02-20T01:06:52;102235.04;;;23.75;29.14
42511;BME280;28141;51.120;17.114;2023-02-20T01:09:56;102233.71;;;23.71;29.35
42511;BME280;28141;51.120;17.114;2023-02-20T01:13:27;102237.42;;;23.78;29.12
42511;BME280;28141;51.120;17.114;2023-02-20T01:16:30;102229.37;;;23.83;29.02
42511;BME280;28141;51.120;17.114;2023-02-20T01:19:33;102220.02;;;23.84;29.19
42511;BME280;28141;51.120;17.114;2023-02-20T01:22:37;102224.73;;;23.90;28.84
42511;BME280;28141;51.120;17.114;2023-02-20T01:25:41;102222.39;;;23.87;28.91
42511;BME280;28141;51.120;17.114;2023-02-20T01:28:45;102225.16;;;23.87;28.87
42511;BME280;28141;51.120;17.114;2023-02-20T01:31:51;102218.58;;;23.88;29.17
42511;BME280;28141;51.120;17.114;2023-02-20T01:34:55;102215.39;;;23.91;29.04
42511;BME280;28141;51.120;17.114;2023-02-20T01:38:24;102216.25;;;23.92;28.87
42511;BME280;28141;51.120;17.114;2023-02-20T01:41:27;102192.61;;;23.89;28.89
42511;BME280;28141;51.120;17.114;2023-02-20T01:44:33;102185.21;;;23.96;28.97
42511;BME280;28141;51.120;17.114;2023-02-20T01:47:37;102184.95;;;23.91;28.85
42511;BME280;28141;51.120;17.114;2023-02-20T01:50:43;102181.78;;;23.94;28.83
42511;BME280;28141;51.120;17.114;2023-02-20T01:53:47;102177.41;;;24.07;28.78
42511;BME280;28141;51.120;17.114;2023-02-20T01:56:51;102175.47;;;24.00;28.55
42511;BME280;28141;51.120;17.114;2023-02-20T02:00:05;102172.93;;;24.06;28.62
42511;BME280;28141;51.120;17.114;2023-02-20T02:03:36;102172.89;;;23.99;28.69
42511;BME280;28141;51.120;17.114;2023-02-20T02:06:46;102163.54;;;24.00;28.68
42511;BME280;28141;51.120;17.114;2023-02-20T02:13:07;102150.02;;;23.90;28.79
42511;BME280;28141;51.120;17.114;2023-02-20T02:20:07;102151.53;;;23.93;28.77
42511;BME280;28141;51.120;17.114;2023-02-20T02:26:35;102143.43;;;23.91;28.50
42511;BME280;28141;51.120;17.114;2023-02-20T02:33:30;102126.66;;;23.72;28.98
42511;BME280;28141;51.120;17.114;2023-02-20T02:46:56;102120.16;;;23.79;28.92
42511;BME280;28141;51.120;17.114;2023-02-20T02:50:07;102122.69;;;23.81;29.00
42511;BME280;28141;51.120;17.114;2023-02-20T02:53:13;102133.99;;;23.79;28.87
42511;BME280;28141;51.120;17.114;2023-02-20T02:56:17;102126.73;;;23.78;29.09
42511;BME280;28141;51.120;17.114;2023-02-20T02:59:28;102118.21;;;23.80;29.65
42511;BME280;28141;51.120;17.114;2023-02-20T03:03:06;102111.42;;;23.82;28.97
42511;BME280;28141;51.120;17.114;2023-02-20T03:06:19;102100.79;;;23.79;29.09
42511;BME280;28141;51.120;17.114;2023-02-20T03:09:32;102101.21;;;23.83;29.03
42511;BME280;28141;51.120;17.114;2023-02-20T03:12:40;102092.13;;;23.89;28.95
42511;BME280;28141;51.120;17.114;2023-02-20T03:16:13;102091.07;;;23.90;28.84
42511;BME280;28141;51.120;17.114;2023-02-20T03:19:25;102090.45;;;23.94;28.56
42511;BME280;28141;51.120;17.114;2023-02-20T03:22:34;102095.32;;;23.92;28.54
42511;BME280;28141;51.120;17.114;2023-02-20T03:25:46;102091.89;;;23.90;28.88
42511;BME280;28141;51.120;17.114;2023-02-20T03:28:58;102097.00;;;23.87;28.85
42511;BME280;28141;51.120;17.114;2023-02-20T03:32:30;102105.11;;;23.88;28.86
42511;BME280;28141;51.120;17.114;2023-02-20T03:35:47;102106.75;;;23.83;28.87
42511;BME280;28141;51.120;17.114;2023-02-20T03:39:08;102097.36;;;23.77;29.12
42511;BME280;28141;51.120;17.114;2023-02-20T03:42:54;102104.84;;;23.83;28.94
42511;BME280;28141;51.120;17.114;2023-02-20T03:46:16;102083.95;;;23.81;28.72
42511;BME280;28141;51.120;17.114;2023-02-20T03:49:28;102087.38;;;23.83;29.02
42511;BME280;28141;51.120;17.114;2023-02-20T03:52:34;102081.19;;;23.81;29.17
42511;BME280;28141;51.120;17.114;2023-02-20T03:56:07;102091.87;;;23.84;28.94
42511;BME280;28141;51.120;17.114;2023-02-20T03:59:22;102087.18;;;23.84;28.73
42511;BME280;28141;51.120;17.114;2023-02-20T04:02:34;102084.68;;;23.89;28.64
42511;BME280;28141;51.120;17.114;2023-02-20T04:05:43;102068.70;;;23.91;28.89
42511;BME280;28141;51.120;17.114;2023-02-20T04:09:23;102070.69;;;23.97;28.73
42511;BME280;28141;51.120;17.114;2023-02-20T04:12:33;102050.64;;;23.95;28.46
42511;BME280;28141;51.120;17.114;2023-02-20T04:15:40;102038.32;;;23.98;28.95
42511;BME280;28141;51.120;17.114;2023-02-20T04:18:44;102039.10;;;23.92;28.74
42511;BME280;28141;51.120;17.114;2023-02-20T04:21:53;102041.85;;;23.85;28.79
42511;BME280;28141;51.120;17.114;2023-02-20T04:25:38;102040.83;;;23.93;28.77
42511;BME280;28141;51.120;17.114;2023-02-20T04:28:41;102044.26;;;23.95;28.59
42511;BME280;28141;51.120;17.114;2023-02-20T04:31:45;102036.80;;;23.95;28.79
42511;BME280;28141;51.120;17.114;2023-02-20T04:34:49;102043.45;;;24.01;28.72
42511;BME280;28141;51.120;17.114;2023-02-20T04:37:52;102043.00;;;23.97;28.73
42511;BME280;28141;51.120;17.114;2023-02-20T04:40:56;102041.68;;;23.93;28.72
42511;BME280;28141;51.120;17.114;2023-02-20T04:43:59;102040.88;;;23.99;28.84
42511;BME280;28141;51.120;17.114;2023-02-20T04:47:39;102035.95;;;23.95;28.67
42511;BME280;28141;51.120;17.114;2023-02-20T04:50:43;102023.42;;;23.99;28.72
42511;BME280;28141;51.120;17.114;2023-02-20T04:53:46;102005.96;;;23.98;28.74
42511;BME280;28141;51.120;17.114;2023-02-20T04:56:50;102006.96;;;23.91;28.75
42511;BME280;28141;51.120;17.114;2023-02-20T04:59:53;102011.64;;;23.90;28.75
42511;BME280;28141;51.120;17.114;2023-02-20T05:02:57;102010.16;;;23.88;28.99
42511;BME280;28141;51.120;17.114;2023-02-20T05:06:00;102007.39;;;23.88;29.11
42511;BME280;28141;51.120;17.114;2023-02-20T05:09:04;101995.03;;;23.90;28.90
42511;BME280;28141;51.120;17.114;2023-02-20T05:12:37;101996.98;;;23.90;28.81
42511;BME280;28141;51.120;17.114;2023-02-20T05:15:41;101999.52;;;23.91;28.83
42511;BME280;28141;51.120;17.114;2023-02-20T05:18:44;102005.05;;;23.91;28.32
42511;BME280;28141;51.120;17.114;2023-02-20T05:21:48;102002.08;;;23.93;28.72
42511;BME280;28141;51.120;17.114;2023-02-20T05:25:05;102000.74;;;23.82;28.84
42511;BME280;28141;51.120;17.114;2023-02-20T05:28:09;101989.76;;;23.95;28.77
42511;BME280;28141;51.120;17.114;2023-02-20T05:31:13;101988.44;;;23.91;28.43
42511;BME280;28141;51.120;17.114;2023-02-20T05:34:41;101985.27;;;23.94;28.53
42511;BME280;28141;51.120;17.114;2023-02-20T05:37:45;101981.46;;;23.95;28.59
42511;BME280;28141;51.120;17.114;2023-02-20T05:43:46;101987.88;;;24.02;28.57
42511;BME280;28141;51.120;17.114;2023-02-20T05:46:50;101990.61;;;23.96;28.38
42511;BME280;28141;51.120;17.114;2023-02-20T05:49:57;101985.93;;;23.96;28.34
42511;BME280;28141;51.120;17.114;2023-02-20T05:53:00;101981.07;;;24.05;28.17
42511;BME280;28141;51.120;17.114;2023-02-20T05:56:04;101982.58;;;24.08;28.25
42511;BME280;28141;51.120;17.114;2023-02-20T05:59:08;101974.02;;;24.02;28.41
42511;BME280;28141;51.120;17.114;2023-02-20T06:02:11;101982.98;;;24.05;28.27
42511;BME280;28141;51.120;17.114;2023-02-20T06:05:16;101969.15;;;24.05;28.22
42511;BME280;28141;51.120;17.114;2023-02-20T06:08:45;101973.22;;;24.09;28.38
42511;BME280;28141;51.120;17.114;2023-02-20T06:11:51;101971.33;;;24.16;28.47
42511;BME280;28141;51.120;17.114;2023-02-20T06:14:55;101969.86;;;24.20;28.41
42511;BME280;28141;51.120;17.114;2023-02-20T06:17:58;101967.55;;;24.23;28.64
42511;BME280;28141;51.120;17.114;2023-02-20T06:21:02;101972.03;;;24.24;28.25
42511;BME280;28141;51.120;17.114;2023-02-20T06:24:06;101964.58;;;24.25;28.38
42511;BME280;28141;51.120;17.114;2023-02-20T06:27:09;101973.33;;;24.28;28.28
42511;BME280;28141;51.120;17.114;2023-02-20T06:30:13;101961.86;;;24.38;28.42
42511;BME280;28141;51.120;17.114;2023-02-20T06:33:43;101970.41;;;24.43;28.17
42511;BME280;28141;51.120;17.114;2023-02-20T06:36:47;101959.99;;;24.52;28.02
42511;BME280;28141;51.120;17.114;2023-02-20T06:39:51;101954.05;;;24.61;28.20
42511;BME280;28141;51.120;17.114;2023-02-20T06:42:54;101943.62;;;24.63;27.98
42511;BME280;28141;51.120;17.114;2023-02-20T06:45:57;101945.94;;;24.66;28.08
42511;BME280;28141;51.120;17.114;2023-02-20T06:49:01;101947.68;;;24.74;28.12
42511;BME280;28141;51.120;17.114;2023-02-20T06:52:05;101946.41;;;24.83;27.72
42511;BME280;28141;51.120;17.114;2023-02-20T06:55:08;101929.37;;;24.86;27.90
42511;BME280;28141;51.120;17.114;2023-02-20T06:58:12;101931.95;;;24.94;28.02
42511;BME280;28141;51.120;17.114;2023-02-20T07:01:42;101930.48;;;24.98;27.94
42511;BME280;28141;51.120;17.114;2023-02-20T07:04:49;101942.20;;;25.07;27.79
42511;BME280;28141;51.120;17.114;2023-02-20T07:07:53;101938.98;;;25.03;28.01
42511;BME280;28141;51.120;17.114;2023-02-20T07:10:56;101931.30;;;25.12;27.61
42511;BME280;28141;51.120;17.114;2023-02-20T07:13:59;101925.13;;;25.17;27.91
42511;BME280;28141;51.120;17.114;2023-02-20T07:17:03;101915.53;;;25.19;27.61
42511;BME280;28141;51.120;17.114;2023-02-20T07:20:07;101909.53;;;25.22;27.32
42511;BME280;28141;51.120;17.114;2023-02-20T07:23:12;101904.65;;;25.18;27.37
42511;BME280;28141;51.120;17.114;2023-02-20T07:26:21;101902.52;;;25.20;27.51
42511;BME280;28141;51.120;17.114;2023-02-20T07:29:51;101900.16;;;25.17;27.34
42511;BME280;28141;51.120;17.114;2023-02-20T07:32:55;101884.16;;;25.12;27.09
42511;BME280;28141;51.120;17.114;2023-02-20T07:35:58;101881.82;;;25.16;27.61
42511;BME280;28141;51.120;17.114;2023-02-20T07:39:03;101869.45;;;25.18;27.38
42511;BME280;28141;51.120;17.114;2023-02-20T07:42:08;101860.66;;;25.34;27.57
42511;BME280;28141;51.120;17.114;2023-02-20T07:45:12;101845.51;;;25.37;27.29
42511;BME280;28141;51.120;17.114;2023-02-20T07:48:15;101841.22;;;25.48;27.51
42511;BME280;28141;51.120;17.114;2023-02-20T07:51:18;101836.09;;;25.44;27.77
42511;BME280;28141;51.120;17.114;2023-02-20T07:54:22;101844.41;;;25.51;27.92
42511;BME280;28141;51.120;17.114;2023-02-20T07:57:25;101832.88;;;25.61;27.70
42511;BME280;28141;51.120;17.114;2023-02-20T08:00:29;101826.87;;;25.64;27.59
42511;BME280;28141;51.120;17.114;2023-02-20T08:03:59;101817.26;;;25.66;27.72
42511;BME280;28141;51.120;17.114;2023-02-20T08:07:03;101818.54;;;25.70;27.59
42511;BME280;28141;51.120;17.114;2023-02-20T08:10:09;101825.96;;;25.83;27.54
42511;BME280;28141;51.120;17.114;2023-02-20T08:13:12;101820.41;;;25.83;27.47
42511;BME280;28141;51.120;17.114;2023-02-20T08:16:15;101809.08;;;25.85;27.57
42511;BME280;28141;51.120;17.114;2023-02-20T08:19:19;101802.21;;;25.87;27.26
42511;BME280;28141;51.120;17.114;2023-02-20T08:22:22;101801.14;;;25.88;27.25
42511;BME280;28141;51.120;17.114;2023-02-20T08:25:25;101788.11;;;25.89;27.43
42511;BME280;28141;51.120;17.114;2023-02-20T08:28:29;101785.53;;;25.94;27.30
42511;BME280;28141;51.120;17.114;2023-02-20T08:31:33;101782.71;;;26.00;27.28
42511;BME280;28141;51.120;17.114;2023-02-20T08:34:36;101784.61;;;26.06;27.89
42511;BME280;28141;51.120;17.114;2023-02-20T08:41:20;101773.44;;;26.13;27.51
42511;BME280;28141;51.120;17.114;2023-02-20T08:44:24;101768.30;;;26.16;27.73
42511;BME280;28141;51.120;17.114;2023-02-20T08:47:28;101763.98;;;26.27;27.77
42511;BME280;28141;51.120;17.114;2023-02-20T08:50:31;101760.69;;;26.37;27.59
42511;BME280;28141;51.120;17.114;2023-02-20T08:53:37;101751.66;;;26.41;27.71
42511;BME280;28141;51.120;17.114;2023-02-20T08:56:41;101736.17;;;26.52;27.67
42511;BME280;28141;51.120;17.114;2023-02-20T08:59:45;101726.94;;;26.58;27.72
42511;BME280;28141;51.120;17.114;2023-02-20T09:02:48;101719.23;;;26.60;27.37
42511;BME280;28141;51.120;17.114;2023-02-20T09:06:18;101730.49;;;26.65;27.63
42511;BME280;28141;51.120;17.114;2023-02-20T09:09:21;101714.44;;;26.67;27.20
42511;BME280;28141;51.120;17.114;2023-02-20T09:12:25;101720.15;;;26.72;27.36
42511;BME280;28141;51.120;17.114;2023-02-20T09:15:28;101701.94;;;26.76;27.52
42511;BME280;28141;51.120;17.114;2023-02-20T09:18:37;101702.65;;;26.90;27.53
42511;BME280;28141;51.120;17.114;2023-02-20T09:21:45;101702.26;;;26.86;27.03
42511;BME280;28141;51.120;17.114;2023-02-20T09:24:50;101694.37;;;26.83;27.25
42511;BME280;28141;51.120;17.114;2023-02-20T09:27:54;101695.84;;;26.86;27.01
42511;BME280;28141;51.120;17.114;2023-02-20T09:30:58;101694.37;;;26.83;26.94
42511;BME280;28141;51.120;17.114;2023-02-20T09:34:28;101676.84;;;26.83;27.19
42511;BME280;28141;51.120;17.114;2023-02-20T09:37:32;101662.08;;;26.82;27.21
42511;BME280;28141;51.120;17.114;2023-02-20T09:40:36;101659.92;;;26.84;27.30
42511;BME280;28141;51.120;17.114;2023-02-20T09:47:01;101650.37;;;26.80;27.61
42511;BME280;28141;51.120;17.114;2023-02-20T09:50:15;101656.41;;;26.96;27.35
42511;BME280;28141;51.120;17.114;2023-02-20T09:53:56;101650.38;;;26.99;27.38
42511;BME280;28141;51.120;17.114;2023-02-20T09:57:11;101639.55;;;26.90;27.37
42511;BME280;28141;51.120;17.114;2023-02-20T10:10:32;101609.37;;;26.94;27.65
42511;BME280;28141;51.120;17.114;2023-02-20T10:13:55;101574.98;;;27.07;27.82
42511;BME280;28141;51.120;17.114;2023-02-20T10:17:02;101567.98;;;27.16;27.49
42511;BME280;28141;51.120;17.114;2023-02-20T10:23:55;101548.28;;;27.17;26.72
42511;BME280;28141;51.120;17.114;2023-02-20T10:27:24;101553.77;;;27.24;27.34
42511;BME280;28141;51.120;17.114;2023-02-20T10:30:27;101540.45;;;27.26;26.89
42511;BME280;28141;51.120;17.114;2023-02-20T10:34:03;101516.53;;;27.25;26.79
42511;BME280;28141;51.120;17.114;2023-02-20T10:37:18;101502.38;;;27.38;26.42
42511;BME280;28141;51.120;17.114;2023-02-20T10:40:30;101491.77;;;27.47;26.39
42511;BME280;28141;51.120;17.114;2023-02-20T10:53:56;101444.73;;;27.69;26.29
42511;BME280;28141;51.120;17.114;2023-02-20T10:57:09;101446.39;;;27.70;26.58
42511;BME280;28141;51.120;17.114;2023-02-20T11:00:19;101440.48;;;27.78;26.28
42511;BME280;28141;51.120;17.114;2023-02-20T11:07:13;101456.82;;;27.86;26.25
42511;BME280;28141;51.120;17.114;2023-02-20T11:10:17;101442.17;;;27.90;26.49
42511;BME280;28141;51.120;17.114;2023-02-20T11:13:23;101433.07;;;27.95;26.28
42511;BME280;28141;51.120;17.114;2023-02-20T11:16:39;101421.77;;;28.02;25.64
42511;BME280;28141;51.120;17.114;2023-02-20T11:19:52;101410.78;;;27.95;25.93
42511;BME280;28141;51.120;17.114;2023-02-20T11:23:34;101410.40;;;28.03;26.28
42511;BME280;28141;51.120;17.114;2023-02-20T11:26:38;101416.09;;;28.08;26.33
42511;BME280;28141;51.120;17.114;2023-02-20T11:33:26;101403.02;;;28.09;26.18
42511;BME280;28141;51.120;17.114;2023-02-20T11:36:18;101396.35;;;28.10;26.50
42511;BME280;28141;51.120;17.114;2023-02-20T11:39:51;101375.64;;;28.17;26.69
42511;BME280;28141;51.120;17.114;2023-02-20T11:42:54;101374.63;;;28.23;26.77
42511;BME280;28141;51.120;17.114;2023-02-20T11:46:26;101361.51;;;28.36;26.68
42511;BME280;28141;51.120;17.114;2023-02-20T11:49:23;101355.07;;;28.35;26.61
42511;BME280;28141;51.120;17.114;2023-02-20T11:52:28;101353.30;;;28.29;26.41
42511;BME280;28141;51.120;17.114;2023-02-20T11:55:31;101333.15;;;28.39;26.77
42511;BME280;28141;51.120;17.114;2023-02-20T11:58:36;101316.00;;;28.47;27.17
42511;BME280;28141;51.120;17.114;2023-02-20T12:08:49;101297.03;;;28.44;26.49
42511;BME280;28141;51.120;17.114;2023-02-20T12:11:56;101290.44;;;28.50;26.81
42511;BME280;28141;51.120;17.114;2023-02-20T12:14:59;101276.84;;;28.53;26.78
42511;BME280;28141;51.120;17.114;2023-02-20T12:18:44;101260.45;;;28.57;26.42
42511;BME280;28141;51.120;17.114;2023-02-20T12:25:14;101232.49;;;28.52;26.42
42511;BME280;28141;51.120;17.114;2023-02-20T12:35:39;101205.63;;;28.46;25.52
42511;BME280;28141;51.120;17.114;2023-02-20T12:38:42;101179.53;;;28.35;25.84
42511;BME280;28141;51.120;17.114;2023-02-20T12:42:11;101178.19;;;28.38;25.74
42511;BME280;28141;51.120;17.114;2023-02-20T12:55:26;101158.84;;;28.48;25.32
42511;BME280;28141;51.120;17.114;2023-02-20T13:05:29;101126.65;;;28.57;25.02
42511;BME280;28141;51.120;17.114;2023-02-20T13:08:51;101117.09;;;28.69;25.54
42511;BME280;28141;51.120;17.114;2023-02-20T13:11:53;101118.77;;;28.70;25.18
42511;BME280;28141;51.120;17.114;2023-02-20T13:18:53;101099.45;;;28.64;24.63
42511;BME280;28141;51.120;17.114;2023-02-20T13:21:59;101102.75;;;28.61;24.81
42511;BME280;28141;51.120;17.114;2023-02-20T13:25:55;101098.50;;;28.75;25.13
42511;BME280;28141;51.120;17.114;2023-02-20T13:28:29;101094.02;;;28.74;24.67
42511;BME280;28141;51.120;17.114;2023-02-20T13:38:30;101086.75;;;28.73;24.33
42511;BME280;28141;51.120;17.114;2023-02-20T13:44:49;101084.46;;;28.87;24.84
42511;BME280;28141;51.120;17.114;2023-02-20T13:51:38;101069.13;;;28.89;24.61
42511;BME280;28141;51.120;17.114;2023-02-20T13:54:42;101069.25;;;28.99;24.55
42511;BME280;28141;51.120;17.114;2023-02-20T13:57:52;101072.96;;;29.05;24.29
42511;BME280;28141;51.120;17.114;2023-02-20T14:00:57;101066.29;;;29.06;23.91
42511;BME280;28141;51.120;17.114;2023-02-20T14:04:04;101073.66;;;29.17;24.20
42511;BME280;28141;51.120;17.114;2023-02-20T14:07:07;101075.66;;;29.22;23.71
42511;BME280;28141;51.120;17.114;2023-02-20T14:10:37;101073.45;;;29.24;23.90
42511;BME280;28141;51.120;17.114;2023-02-20T14:13:43;101063.98;;;29.25;24.01
42511;BME280;28141;51.120;17.114;2023-02-20T14:16:50;101081.63;;;29.30;23.88
42511;BME280;28141;51.120;17.114;2023-02-20T14:19:57;101073.26;;;29.30;23.96
42511;BME280;28141;51.120;17.114;2023-02-20T14:23:14;101071.02;;;29.32;24.07
42511;BME280;28141;51.120;17.114;2023-02-20T14:26:24;101058.13;;;29.26;23.92
42511;BME280;28141;51.120;17.114;2023-02-20T14:30:07;101052.63;;;29.10;24.27
42511;BME280;28141;51.120;17.114;2023-02-20T14:33:26;101054.17;;;28.95;24.68
42511;BME280;28141;51.120;17.114;2023-02-20T14:43:25;101031.63;;;28.58;24.74
42511;BME280;28141;51.120;17.114;2023-02-20T14:46:32;101033.77;;;28.51;24.80
42511;BME280;28141;51.120;17.114;2023-02-20T14:49:37;101034.54;;;28.47;25.05
42511;BME280;28141;51.120;17.114;2023-02-20T14:52:41;101031.70;;;28.42;25.10
42511;BME280;28141;51.120;17.114;2023-02-20T14:55:44;101030.63;;;28.26;25.47
42511;BME280;28141;51.120;17.114;2023-02-20T14:58:48;101033.48;;;28.14;26.07
42511;BME280;28141;51.120;17.114;2023-02-20T15:01:57;101049.04;;;28.10;25.90
42511;BME280;28141;51.120;17.114;2023-02-20T15:05:07;101050.57;;;28.01;25.91
42511;BME280;28141;51.120;17.114;2023-02-20T15:08:37;101057.39;;;27.93;26.08
42511;BME280;28141;51.120;17.114;2023-02-20T15:11:50;101060.37;;;27.87;25.52
42511;BME280;28141;51.120;17.114;2023-02-20T15:21:33;101071.30;;;27.60;26.38
42511;BME280;28141;51.120;17.114;2023-02-20T15:25:11;101084.14;;;27.49;26.49
42511;BME280;28141;51.120;17.114;2023-02-20T15:28:32;101078.34;;;27.51;26.61
42511;BME280;28141;51.120;17.114;2023-02-20T15:31:33;101070.49;;;27.48;26.82
42511;BME280;28141;51.120;17.114;2023-02-20T15:34:37;101076.99;;;27.53;26.77
42511;BME280;28141;51.120;17.114;2023-02-20T15:37:40;101078.50;;;27.44;26.77
42511;BME280;28141;51.120;17.114;2023-02-20T15:40:44;101071.01;;;27.45;26.91
42511;BME280;28141;51.120;17.114;2023-02-20T15:43:48;101080.34;;;27.39;26.66
42511;BME280;28141;51.120;17.114;2023-02-20T15:47:17;101081.59;;;27.31;27.03
42511;BME280;28141;51.120;17.114;2023-02-20T15:50:22;101094.57;;;27.25;27.34
42511;BME280;28141;51.120;17.114;2023-02-20T15:53:28;101078.45;;;27.28;27.71
42511;BME280;28141;51.120;17.114;2023-02-20T15:56:33;101087.68;;;27.16;27.45
42511;BME280;28141;51.120;17.114;2023-02-20T15:59:37;101080.59;;;27.09;27.34
42511;BME280;28141;51.120;17.114;2023-02-20T16:02:40;101098.51;;;27.01;27.62
42511;BME280;28141;51.120;17.114;2023-02-20T16:05:43;101087.88;;;26.98;27.71
42511;BME280;28141;51.120;17.114;2023-02-20T16:08:47;101103.63;;;26.93;27.69
42511;BME280;28141;51.120;17.114;2023-02-20T16:11:52;101107.46;;;26.92;27.59
42511;BME280;28141;51.120;17.114;2023-02-20T16:14:57;101101.41;;;26.83;27.83
42511;BME280;28141;51.120;17.114;2023-02-20T16:18:27;101119.46;;;26.80;28.27
42511;BME280;28141;51.120;17.114;2023-02-20T16:21:31;101111.48;;;26.72;28.18
42511;BME280;28141;51.120;17.114;2023-02-20T16:24:35;101106.52;;;26.74;28.46
42511;BME280;28141;51.120;17.114;2023-02-20T16:27:41;101115.09;;;26.73;28.54
42511;BME280;28141;51.120;17.114;2023-02-20T16:30:46;101116.09;;;26.67;28.46
42511;BME280;28141;51.120;17.114;2023-02-20T16:33:49;101111.76;;;26.59;29.03
42511;BME280;28141;51.120;17.114;2023-02-20T16:36:53;101106.31;;;26.52;28.85
42511;BME280;28141;51.120;17.114;2023-02-20T16:39:56;101119.48;;;26.57;28.63
42511;BME280;28141;51.120;17.114;2023-02-20T16:42:59;101127.91;;;26.62;28.92
42511;BME280;28141;51.120;17.114;2023-02-20T16:46:03;101132.15;;;26.65;28.80
42511;BME280;28141;51.120;17.114;2023-02-20T16:49:09;101132.89;;;26.60;28.69
42511;BME280;28141;51.120;17.114;2023-02-20T16:52:41;101134.22;;;26.58;28.84
42511;BME280;28141;51.120;17.114;2023-02-20T16:55:45;101142.32;;;26.59;28.78
42511;BME280;28141;51.120;17.114;2023-02-20T16:58:50;101137.47;;;26.54;29.05
42511;BME280;28141;51.120;17.114;2023-02-20T17:01:53;101157.16;;;26.53;28.95
42511;BME280;28141;51.120;17.114;2023-02-20T17:04:57;101151.27;;;26.38;29.10
42511;BME280;28141;51.120;17.114;2023-02-20T17:08:02;101141.00;;;26.38;29.84
42511;BME280;28141;51.120;17.114;2023-02-20T17:11:07;101142.09;;;26.49;29.27
42511;BME280;28141;51.120;17.114;2023-02-20T17:14:11;101147.64;;;26.37;29.04
42511;BME280;28141;51.120;17.114;2023-02-20T17:17:16;101160.54;;;26.32;29.38
42511;BME280;28141;51.120;17.114;2023-02-20T17:20:25;101160.38;;;26.15;29.90
42511;BME280;28141;51.120;17.114;2023-02-20T17:23:55;101171.00;;;26.06;29.66
42511;BME280;28141;51.120;17.114;2023-02-20T17:27:00;101159.37;;;25.98;30.06
42511;BME280;28141;51.120;17.114;2023-02-20T17:30:05;101172.42;;;26.09;29.88
42511;BME280;28141;51.120;17.114;2023-02-20T17:33:09;101171.11;;;26.11;29.67
42511;BME280;28141;51.120;17.114;2023-02-20T17:36:12;101178.59;;;26.11;29.84
42511;BME280;28141;51.120;17.114;2023-02-20T17:39:17;101174.97;;;26.10;29.94
42511;BME280;28141;51.120;17.114;2023-02-20T17:42:22;101182.41;;;25.98;30.33
42511;BME280;28141;51.120;17.114;2023-02-20T17:45:26;101182.10;;;26.06;30.09
42511;BME280;28141;51.120;17.114;2023-02-20T17:48:29;101187.30;;;26.14;29.83
42511;BME280;28141;51.120;17.114;2023-02-20T17:51:32;101193.34;;;26.23;29.58
42511;BME280;28141;51.120;17.114;2023-02-20T17:55:04;101187.27;;;26.03;29.80
42511;BME280;28141;51.120;17.114;2023-02-20T17:58:08;101188.74;;;26.05;30.01
42511;BME280;28141;51.120;17.114;2023-02-20T18:01:13;101186.31;;;26.09;29.65
42511;BME280;28141;51.120;17.114;2023-02-20T18:04:17;101186.19;;;26.04;29.67
42511;BME280;28141;51.120;17.114;2023-02-20T18:07:21;101181.96;;;26.01;30.12
42511;BME280;28141;51.120;17.114;2023-02-20T18:10:24;101176.55;;;26.06;30.57
42511;BME280;28141;51.120;17.114;2023-02-20T18:13:28;101162.76;;;26.00;30.15
42511;BME280;28141;51.120;17.114;2023-02-20T18:16:32;101158.30;;;26.10;30.18
42511;BME280;28141;51.120;17.114;2023-02-20T18:19:35;101146.59;;;26.08;30.16
42511;BME280;28141;51.120;17.114;2023-02-20T18:22:39;101150.95;;;26.04;30.29
42511;BME280;28141;51.120;17.114;2023-02-20T18:25:42;101149.11;;;25.98;30.30
42511;BME280;28141;51.120;17.114;2023-02-20T18:29:14;101154.66;;;25.98;30.14